Terminal Aerodrome Forecast
Issued by NWS

Home | Current Version | Previous Version | Text Only | Print | Product List | Glossary On
Versions: 1 2 3 4 5 6 7 8 9 10 11 12
000
FTUS45 KABQ 011100
TAFSAF
TAF
KSAF 011124Z 0112/0212 35007KT P6SM SKC
     FM012000 27010G16KT P6SM FEW100
     FM020200 01006KT P6SM SKC=

USA.gov is the U.S. government's official web portal to all federal, state and local government web resources and services.